createdAt,value
2023-05-22T00:01:46.788Z,99.90
2023-05-22T00:04:13.967Z,99.90
2023-05-22T00:06:43.831Z,99.90
2023-05-22T00:09:11.076Z,99.90
2023-05-22T00:11:39.515Z,99.90
2023-05-22T00:14:06.462Z,99.90
2023-05-22T00:16:33.277Z,99.90
2023-05-22T00:19:01.044Z,99.90
2023-05-22T00:21:27.995Z,99.90
2023-05-22T00:23:54.707Z,99.90
2023-05-22T00:26:23.838Z,99.90
2023-05-22T00:28:50.725Z,99.90
2023-05-22T00:31:17.574Z,99.90
2023-05-22T00:33:44.612Z,99.90
2023-05-22T00:36:11.398Z,99.90
2023-05-22T00:38:38.168Z,99.90
2023-05-22T00:41:06.898Z,99.90
2023-05-22T00:43:34.320Z,99.90
2023-05-22T00:46:01.182Z,99.90
2023-05-22T00:48:28.041Z,99.90
2023-05-22T00:50:57.125Z,99.90
2023-05-22T00:53:25.466Z,99.90
2023-05-22T00:55:54.152Z,99.90
2023-05-22T00:58:21.781Z,99.90
2023-05-22T01:00:48.934Z,99.90
2023-05-22T01:03:18.594Z,99.90
2023-05-22T01:05:45.573Z,99.90
2023-05-22T01:08:12.380Z,99.90
2023-05-22T01:10:40.699Z,99.90
2023-05-22T01:13:16.555Z,99.90
2023-05-22T01:15:57.498Z,99.90
2023-05-22T01:18:24.972Z,99.90
2023-05-22T01:21:04.408Z,99.90
2023-05-22T01:24:12.035Z,99.90
2023-05-22T01:27:06.962Z,99.90
2023-05-22T01:29:46.261Z,99.90
2023-05-22T01:32:16.937Z,99.90
2023-05-22T01:34:46.687Z,99.90
2023-05-22T01:37:14.986Z,99.90
2023-05-22T01:39:42.428Z,99.90
2023-05-22T01:42:09.266Z,99.90
2023-05-22T01:44:36.038Z,99.90
2023-05-22T01:47:05.310Z,99.90
2023-05-22T01:49:33.839Z,99.90
2023-05-22T01:52:15.325Z,99.90
2023-05-22T01:55:06.506Z,99.90
2023-05-22T01:57:57.000Z,99.90
2023-05-22T02:00:27.614Z,99.90
2023-05-22T02:03:01.881Z,99.90
2023-05-22T02:05:30.344Z,99.90
2023-05-22T02:08:00.784Z,99.90
2023-05-22T02:10:29.471Z,99.90
2023-05-22T02:12:57.003Z,99.90
2023-05-22T02:15:24.017Z,99.90
2023-05-22T02:17:53.340Z,99.90
2023-05-22T02:20:20.180Z,99.90
2023-05-22T02:22:47.888Z,99.90
2023-05-22T02:25:17.009Z,99.90
2023-05-22T02:27:45.807Z,99.90
2023-05-22T02:30:13.884Z,99.90
2023-05-22T02:32:41.592Z,99.90
2023-05-22T02:35:08.785Z,99.90
2023-05-22T02:37:36.206Z,99.90
2023-05-22T02:40:06.367Z,99.90
2023-05-22T02:42:33.665Z,99.90
2023-05-22T02:45:00.676Z,99.90
2023-05-22T02:47:27.507Z,99.90
2023-05-22T02:49:54.374Z,99.90
2023-05-22T02:52:22.481Z,99.90
2023-05-22T02:54:49.577Z,99.90
2023-05-22T02:57:16.458Z,99.90
2023-05-22T02:59:44.331Z,99.90
2023-05-22T03:02:12.352Z,99.90
2023-05-22T03:04:39.412Z,99.90
2023-05-22T03:07:07.225Z,99.90
2023-05-22T03:09:34.528Z,99.90
2023-05-22T03:12:01.392Z,99.90
2023-05-22T03:14:29.229Z,99.90
2023-05-22T03:16:56.766Z,99.90
2023-05-22T03:19:23.772Z,99.90
2023-05-22T03:21:50.717Z,99.90
2023-05-22T03:24:17.741Z,99.90
2023-05-22T03:26:44.529Z,99.90
2023-05-22T03:29:11.285Z,99.90
2023-05-22T03:31:38.063Z,99.90
2023-05-22T03:34:05.971Z,99.90
2023-05-22T03:36:34.209Z,99.90
2023-05-22T03:39:02.046Z,99.90
2023-05-22T03:41:28.833Z,99.90
2023-05-22T03:43:55.738Z,99.90
2023-05-22T03:46:23.176Z,99.90
2023-05-22T03:48:50.027Z,99.90
2023-05-22T03:51:20.013Z,99.90
2023-05-22T03:53:47.178Z,99.90
2023-05-22T03:56:14.362Z,99.90
2023-05-22T03:58:41.059Z,99.90
2023-05-22T04:01:10.083Z,99.90
2023-05-22T04:03:37.961Z,99.90
2023-05-22T04:06:05.778Z,99.90
2023-05-22T04:08:32.688Z,99.90
2023-05-22T04:10:59.499Z,99.90
2023-05-22T04:13:27.176Z,99.90
2023-05-22T04:15:54.354Z,99.90
2023-05-22T04:18:21.172Z,99.90
2023-05-22T04:20:48.154Z,99.90
2023-05-22T04:23:14.949Z,99.90
2023-05-22T04:25:41.704Z,99.90
2023-05-22T04:28:09.166Z,99.90
2023-05-22T04:30:40.419Z,99.90
2023-05-22T04:33:08.360Z,99.90
2023-05-22T04:35:35.200Z,99.90
2023-05-22T04:38:02.459Z,99.90
2023-05-22T04:40:30.367Z,99.90
2023-05-22T04:43:00.001Z,99.90
2023-05-22T04:45:28.725Z,99.90
2023-05-22T04:47:59.614Z,99.90
2023-05-22T04:50:26.437Z,99.90
2023-05-22T04:52:53.509Z,99.90
2023-05-22T04:55:20.260Z,99.90
2023-05-22T04:57:47.426Z,99.90
2023-05-22T05:00:17.101Z,99.90
2023-05-22T05:02:44.131Z,99.90
2023-05-22T05:05:11.040Z,99.90
2023-05-22T05:07:39.611Z,99.90
2023-05-22T05:10:07.481Z,99.90
2023-05-22T05:12:34.553Z,99.90
2023-05-22T05:15:01.600Z,99.90
2023-05-22T05:17:28.829Z,99.90
2023-05-22T05:19:55.777Z,99.90
2023-05-22T05:22:23.180Z,99.90
2023-05-22T05:24:50.034Z,99.90
2023-05-22T05:27:16.850Z,99.90
2023-05-22T05:29:43.661Z,99.90
2023-05-22T05:32:12.470Z,99.90
2023-05-22T05:34:39.330Z,99.90
2023-05-22T05:37:06.176Z,99.90
2023-05-22T05:39:33.050Z,99.90
2023-05-22T05:42:00.348Z,99.90
2023-05-22T05:44:27.363Z,99.90
2023-05-22T05:46:54.801Z,99.90
2023-05-22T05:49:22.253Z,99.90
2023-05-22T05:51:49.070Z,99.90
2023-05-22T05:54:15.971Z,99.90
2023-05-22T05:56:43.003Z,99.90
2023-05-22T05:59:09.984Z,99.90
2023-05-22T06:01:38.637Z,99.90
2023-05-22T06:04:05.728Z,99.90
2023-05-22T06:06:36.488Z,99.90
2023-05-22T06:09:07.573Z,99.90
2023-05-22T06:11:34.535Z,99.90
2023-05-22T06:14:03.287Z,99.90
2023-05-22T06:16:30.128Z,99.90
2023-05-22T06:18:59.318Z,99.90
2023-05-22T06:21:26.745Z,99.90
2023-05-22T06:23:53.572Z,99.90
2023-05-22T06:26:20.315Z,99.90
2023-05-22T06:28:47.499Z,99.90
2023-05-22T06:31:14.411Z,99.90
2023-05-22T06:33:43.138Z,99.90
2023-05-22T06:36:11.501Z,99.90
2023-05-22T06:38:39.259Z,99.90
2023-05-22T06:41:06.518Z,99.90
2023-05-22T06:43:33.483Z,99.90
2023-05-22T06:46:00.435Z,99.90
2023-05-22T06:48:27.211Z,99.90
2023-05-22T06:50:54.029Z,99.90
2023-05-22T06:53:20.870Z,99.90
2023-05-22T06:55:47.854Z,99.90
2023-05-22T06:58:14.874Z,99.90
2023-05-22T07:00:41.905Z,99.90
2023-05-22T07:03:08.938Z,99.90
2023-05-22T07:05:36.157Z,99.90
2023-05-22T07:08:03.028Z,99.90
2023-05-22T07:10:29.915Z,99.90
2023-05-22T07:12:56.720Z,99.90
2023-05-22T07:15:23.485Z,99.90
2023-05-22T07:17:50.216Z,99.90
2023-05-22T07:20:17.774Z,99.90
2023-05-22T07:22:44.649Z,99.90
2023-05-22T07:25:11.407Z,99.90
2023-05-22T07:27:38.153Z,99.90
2023-05-22T07:30:05.499Z,99.90
2023-05-22T07:32:32.315Z,99.90
2023-05-22T07:34:59.156Z,99.90
2023-05-22T07:37:26.167Z,99.90
2023-05-22T07:39:52.916Z,99.90
2023-05-22T07:42:19.763Z,99.90
2023-05-22T07:44:46.473Z,99.90
2023-05-22T07:47:13.262Z,99.90
2023-05-22T07:49:40.017Z,99.90
2023-05-22T07:52:07.082Z,99.90
2023-05-22T07:54:33.815Z,99.90
2023-05-22T07:57:03.774Z,99.90
2023-05-22T07:59:30.674Z,99.90
2023-05-22T08:01:58.326Z,99.90
2023-05-22T08:04:26.252Z,99.90
2023-05-22T08:06:53.209Z,99.90
2023-05-22T08:09:21.460Z,99.90
2023-05-22T08:11:48.547Z,99.90
2023-05-22T08:14:15.386Z,99.90
2023-05-22T08:16:42.225Z,99.90
2023-05-22T08:19:09.254Z,99.90
2023-05-22T08:21:37.465Z,99.90
2023-05-22T08:24:04.530Z,99.90
2023-05-22T08:26:33.500Z,99.90
2023-05-22T08:29:01.254Z,99.90
2023-05-22T08:31:29.251Z,99.90
2023-05-22T08:34:02.929Z,99.90
2023-05-22T08:36:34.409Z,99.90
2023-05-22T08:39:01.549Z,99.90
2023-05-22T08:41:29.308Z,99.90
2023-05-22T08:43:56.193Z,99.90
2023-05-22T08:46:28.290Z,99.90
2023-05-22T08:48:58.143Z,99.90
2023-05-22T08:51:29.367Z,99.90
2023-05-22T08:53:57.285Z,99.90
2023-05-22T08:56:26.060Z,99.90
2023-05-22T08:58:54.940Z,99.90
2023-05-22T09:01:22.774Z,99.90
2023-05-22T09:03:51.422Z,99.90
2023-05-22T09:06:18.616Z,99.90
2023-05-22T09:08:46.128Z,99.90
2023-05-22T09:11:13.271Z,99.90
2023-05-22T09:13:41.376Z,99.90
2023-05-22T09:16:12.289Z,99.90
2023-05-22T09:18:40.119Z,99.90
2023-05-22T09:21:21.502Z,99.90
2023-05-22T09:23:55.059Z,99.90
2023-05-22T09:26:22.343Z,99.90
2023-05-22T09:28:49.314Z,99.90
2023-05-22T09:31:16.458Z,99.90
2023-05-22T09:33:44.361Z,99.90
2023-05-22T09:36:11.320Z,99.90
2023-05-22T09:38:39.451Z,99.90
2023-05-22T09:41:06.577Z,99.90
2023-05-22T09:43:34.271Z,99.90
2023-05-22T09:46:02.357Z,99.90
2023-05-22T09:48:29.308Z,99.90
2023-05-22T09:50:59.980Z,99.90
2023-05-22T09:53:28.965Z,99.90
2023-05-22T09:56:00.392Z,99.90
2023-05-22T09:58:31.723Z,99.90
2023-05-22T10:01:00.216Z,99.90
2023-05-22T10:03:27.348Z,99.90
2023-05-22T10:05:58.824Z,99.90
2023-05-22T10:08:28.397Z,99.90
2023-05-22T10:10:55.774Z,99.90
2023-05-22T10:13:24.246Z,99.90
2023-05-22T10:15:51.665Z,99.90
2023-05-22T10:18:18.721Z,99.90
2023-05-22T10:20:49.033Z,99.90
2023-05-22T10:23:17.118Z,99.90
2023-05-22T10:25:45.436Z,99.90
2023-05-22T10:28:19.660Z,99.90
2023-05-22T10:31:00.365Z,99.90
2023-05-22T10:33:38.854Z,99.90
2023-05-22T10:36:10.261Z,99.90
2023-05-22T10:38:55.601Z,99.90
2023-05-22T10:41:26.414Z,99.90
2023-05-22T10:43:57.879Z,99.90
2023-05-22T10:46:25.055Z,99.90
2023-05-22T10:48:54.115Z,99.90
2023-05-22T10:51:22.774Z,99.90
2023-05-22T10:53:59.617Z,99.90
2023-05-22T10:56:33.502Z,99.90
2023-05-22T10:59:05.353Z,99.90
2023-05-22T11:01:37.660Z,99.90
2023-05-22T11:04:05.125Z,99.90
2023-05-22T11:06:45.747Z,99.90
2023-05-22T11:09:30.890Z,99.90
2023-05-22T11:12:19.319Z,99.90
2023-05-22T11:15:19.119Z,99.90
2023-05-22T11:17:51.829Z,99.90
2023-05-22T11:20:22.339Z,99.90
2023-05-22T11:23:06.967Z,99.90
2023-05-22T11:25:41.071Z,99.90
2023-05-22T11:28:08.160Z,99.90
2023-05-22T11:30:35.930Z,99.90
2023-05-22T11:33:03.337Z,99.90
2023-05-22T11:35:30.548Z,99.90
2023-05-22T11:37:57.904Z,99.90
2023-05-22T11:40:27.299Z,99.90
2023-05-22T11:42:54.430Z,99.90
2023-05-22T11:45:22.059Z,99.90
2023-05-22T11:47:49.746Z,99.10
2023-05-22T11:50:22.518Z,99.40
2023-05-22T11:52:56.693Z,99.60
2023-05-22T11:55:24.247Z,99.20
2023-05-22T11:57:51.046Z,99.90
2023-05-22T12:00:18.413Z,99.10
2023-05-22T12:02:49.334Z,99.10
2023-05-22T12:05:16.712Z,98.90
2023-05-22T12:07:43.808Z,99.30
2023-05-22T12:10:11.127Z,97.30
2023-05-22T12:12:38.538Z,97.90
2023-05-22T12:15:06.736Z,97.90
2023-05-22T12:17:37.445Z,97.60
2023-05-22T12:20:05.569Z,99.90
2023-05-22T12:22:32.464Z,97.20
2023-05-22T12:24:59.332Z,97.50
2023-05-22T12:27:33.218Z,95.90
2023-05-22T12:30:10.560Z,98.20
2023-05-22T12:32:37.390Z,96.80
2023-05-22T12:35:04.383Z,96.50
2023-05-22T12:37:34.326Z,96.00
2023-05-22T12:40:03.105Z,96.10
2023-05-22T12:42:30.061Z,98.00
2023-05-22T12:44:58.195Z,96.30
2023-05-22T12:47:25.979Z,95.70
2023-05-22T12:49:52.896Z,96.40
2023-05-22T12:52:19.755Z,96.00
2023-05-22T12:54:46.743Z,95.00
2023-05-22T12:57:13.659Z,94.20
2023-05-22T12:59:41.388Z,94.70
2023-05-22T13:02:08.345Z,93.00
2023-05-22T13:04:35.231Z,93.60
2023-05-22T13:07:02.317Z,92.70
2023-05-22T13:09:29.202Z,92.40
2023-05-22T13:11:56.474Z,96.30
2023-05-22T13:14:23.397Z,95.20
2023-05-22T13:16:50.066Z,94.30
2023-05-22T13:19:17.069Z,92.70
2023-05-22T13:21:44.126Z,91.80
2023-05-22T13:24:11.011Z,90.30
2023-05-22T13:26:37.758Z,90.00
2023-05-22T13:29:05.171Z,91.50
2023-05-22T13:31:37.227Z,90.80
2023-05-22T13:34:04.650Z,90.10
2023-05-22T13:36:31.714Z,90.00
2023-05-22T13:38:58.703Z,91.40
2023-05-22T13:41:25.622Z,89.80
2023-05-22T13:43:52.754Z,91.70
2023-05-22T13:46:21.393Z,92.40
2023-05-22T13:48:48.186Z,89.60
2023-05-22T13:51:15.200Z,91.50
2023-05-22T13:53:41.927Z,91.20
2023-05-22T13:56:08.651Z,92.10
2023-05-22T13:58:35.718Z,85.10
2023-05-22T14:01:02.476Z,85.40
2023-05-22T14:03:29.277Z,82.40
2023-05-22T14:05:56.210Z,81.70
2023-05-22T14:08:22.954Z,79.20
2023-05-22T14:10:49.778Z,80.20
2023-05-22T14:13:16.793Z,81.00
2023-05-22T14:15:46.680Z,81.50
2023-05-22T14:18:14.492Z,79.90
2023-05-22T14:20:41.507Z,79.80
2023-05-22T14:23:08.418Z,78.80
2023-05-22T14:25:35.208Z,78.70
2023-05-22T14:28:01.931Z,77.40
2023-05-22T14:30:28.653Z,81.70
2023-05-22T14:32:55.489Z,78.60
2023-05-22T14:35:22.454Z,80.00
2023-05-22T14:37:49.184Z,81.20
2023-05-22T14:40:16.134Z,82.80
2023-05-22T14:42:42.926Z,84.30
2023-05-22T14:45:09.983Z,85.10
2023-05-22T14:47:36.833Z,84.90
2023-05-22T14:50:18.196Z,87.10
2023-05-22T14:52:46.317Z,88.70
2023-05-22T14:55:13.406Z,87.20
2023-05-22T14:57:40.120Z,87.50
2023-05-22T15:00:09.073Z,90.40
2023-05-22T15:02:36.813Z,90.40
2023-05-22T15:05:04.516Z,92.40
2023-05-22T15:07:43.015Z,90.70
2023-05-22T15:10:11.448Z,90.80
2023-05-22T15:12:38.322Z,91.20
2023-05-22T15:15:05.434Z,90.30
2023-05-22T15:17:32.312Z,91.10
2023-05-22T15:19:59.132Z,91.50
2023-05-22T15:22:25.907Z,91.30
2023-05-22T15:25:07.391Z,92.10
2023-05-22T15:27:35.166Z,91.50
2023-05-22T15:30:02.790Z,91.60
2023-05-22T15:32:32.545Z,91.70
2023-05-22T15:34:59.435Z,91.60
2023-05-22T15:37:29.177Z,91.40
2023-05-22T15:39:57.919Z,91.70
2023-05-22T15:42:24.638Z,92.50
2023-05-22T15:44:51.464Z,92.90
2023-05-22T15:47:18.225Z,94.10
2023-05-22T15:49:44.986Z,94.00
2023-05-22T15:52:11.710Z,93.60
2023-05-22T15:54:38.703Z,93.80
2023-05-22T15:57:05.609Z,94.30
2023-05-22T15:59:32.428Z,93.90
2023-05-22T16:01:59.450Z,93.70
2023-05-22T16:04:26.119Z,93.30
2023-05-22T16:06:52.890Z,92.90
2023-05-22T16:09:19.795Z,93.60
2023-05-22T16:11:46.576Z,92.60
2023-05-22T16:14:13.447Z,92.70
2023-05-22T16:16:41.238Z,92.90
2023-05-22T16:19:08.381Z,92.50
2023-05-22T16:21:35.872Z,92.00
2023-05-22T16:24:03.713Z,92.20
2023-05-22T16:26:30.514Z,92.40
2023-05-22T16:28:57.250Z,92.40
2023-05-22T16:31:24.088Z,92.90
2023-05-22T16:33:51.102Z,92.70
2023-05-22T16:36:17.837Z,92.80
2023-05-22T16:38:44.669Z,92.60
2023-05-22T16:41:11.377Z,92.80
2023-05-22T16:43:38.321Z,92.70
2023-05-22T16:46:05.396Z,92.60
2023-05-22T16:48:32.116Z,92.80
2023-05-22T16:50:58.810Z,92.30
2023-05-22T16:53:25.693Z,92.20
2023-05-22T16:55:52.482Z,92.70
2023-05-22T16:58:19.241Z,92.20
2023-05-22T17:00:46.314Z,92.30
2023-05-22T17:03:14.129Z,92.30
2023-05-22T17:05:41.540Z,92.30
2023-05-22T17:08:08.684Z,92.70
2023-05-22T17:10:35.720Z,93.50
2023-05-22T17:13:02.462Z,93.20
2023-05-22T17:15:29.210Z,92.80
2023-05-22T17:17:55.971Z,93.00
2023-05-22T17:20:25.871Z,93.00
2023-05-22T17:22:52.745Z,93.50
2023-05-22T17:25:19.613Z,93.70
2023-05-22T17:27:46.530Z,93.60
2023-05-22T17:30:13.427Z,93.50
2023-05-22T17:32:40.326Z,93.90
2023-05-22T17:35:07.327Z,94.10
2023-05-22T17:37:34.455Z,94.50
2023-05-22T17:40:01.279Z,94.50
2023-05-22T17:42:28.055Z,94.50
2023-05-22T17:44:54.930Z,94.90
2023-05-22T17:47:21.765Z,94.80
2023-05-22T17:49:48.549Z,94.90
2023-05-22T17:52:15.629Z,95.40
2023-05-22T17:54:42.367Z,95.70
2023-05-22T17:57:09.218Z,96.20
2023-05-22T17:59:37.357Z,95.40
2023-05-22T18:02:06.646Z,95.60
2023-05-22T18:04:33.373Z,95.80
2023-05-22T18:07:00.200Z,96.00
2023-05-22T18:09:26.975Z,96.20
2023-05-22T18:11:53.738Z,96.10
2023-05-22T18:14:21.003Z,95.90
2023-05-22T18:16:47.944Z,95.90
2023-05-22T18:19:14.710Z,96.10
2023-05-22T18:21:41.827Z,96.10
2023-05-22T18:24:08.560Z,96.40
2023-05-22T18:26:35.307Z,96.40
2023-05-22T18:29:02.255Z,96.30
2023-05-22T18:31:29.521Z,96.50
2023-05-22T18:33:56.537Z,96.60
2023-05-22T18:36:23.537Z,96.50
2023-05-22T18:38:50.408Z,96.60
2023-05-22T18:41:17.108Z,96.60
2023-05-22T18:43:43.874Z,96.80
2023-05-22T18:46:10.789Z,96.90
2023-05-22T18:48:37.541Z,97.10
2023-05-22T18:51:04.445Z,97.10
2023-05-22T18:53:31.428Z,97.50
2023-05-22T18:55:58.338Z,97.50
2023-05-22T18:58:25.217Z,97.90
2023-05-22T19:00:54.202Z,98.00
2023-05-22T19:03:20.997Z,98.30
2023-05-22T19:05:48.089Z,98.60
2023-05-22T19:08:14.811Z,99.10
2023-05-22T19:10:41.918Z,98.80
2023-05-22T19:13:08.946Z,98.90
2023-05-22T19:15:35.846Z,99.20
2023-05-22T19:18:02.622Z,99.30
2023-05-22T19:20:29.481Z,99.90
2023-05-22T19:22:56.498Z,99.90
2023-05-22T19:25:23.363Z,99.90
2023-05-22T19:27:50.238Z,99.90
2023-05-22T19:30:18.737Z,99.90
2023-05-22T19:32:45.748Z,99.90
2023-05-22T19:35:12.853Z,99.90
2023-05-22T19:37:39.662Z,99.90
2023-05-22T19:40:07.276Z,99.90
2023-05-22T19:42:34.398Z,99.90
2023-05-22T19:45:02.547Z,99.90
2023-05-22T19:47:29.438Z,99.90
2023-05-22T19:49:59.600Z,99.90
2023-05-22T19:52:29.289Z,99.90
2023-05-22T19:54:56.192Z,99.90
2023-05-22T19:57:23.066Z,99.90
2023-05-22T19:59:50.637Z,99.90
2023-05-22T20:02:17.703Z,99.90
2023-05-22T20:04:48.342Z,99.90
2023-05-22T20:07:15.541Z,99.90
2023-05-22T20:09:42.917Z,99.90
2023-05-22T20:12:10.643Z,99.90
2023-05-22T20:14:37.680Z,99.90
2023-05-22T20:17:04.733Z,99.90
2023-05-22T20:19:34.738Z,99.90
2023-05-22T20:22:02.062Z,99.90
2023-05-22T20:24:29.607Z,99.90
2023-05-22T20:26:56.915Z,99.90
2023-05-22T20:29:23.954Z,99.90
2023-05-22T20:31:54.461Z,99.90
2023-05-22T20:34:26.612Z,99.90
2023-05-22T20:36:54.152Z,99.90
2023-05-22T20:39:22.398Z,99.90
2023-05-22T20:41:52.300Z,99.90
2023-05-22T20:44:19.160Z,99.90
2023-05-22T20:46:45.871Z,99.90
2023-05-22T20:49:12.610Z,99.90
2023-05-22T20:51:39.395Z,99.90
2023-05-22T20:54:06.609Z,99.90
2023-05-22T20:56:33.386Z,99.90
2023-05-22T20:59:00.411Z,99.90
2023-05-22T21:01:27.125Z,99.90
2023-05-22T21:03:56.402Z,99.90
2023-05-22T21:06:23.584Z,99.90
2023-05-22T21:08:53.249Z,99.90
2023-05-22T21:11:21.011Z,99.90
2023-05-22T21:13:47.811Z,99.90
2023-05-22T21:16:14.589Z,99.90
2023-05-22T21:18:41.378Z,99.90
2023-05-22T21:21:08.090Z,99.90
2023-05-22T21:23:35.149Z,99.90
2023-05-22T21:26:04.822Z,99.90
2023-05-22T21:28:31.616Z,99.90
2023-05-22T21:30:58.314Z,99.90
2023-05-22T21:33:25.142Z,99.90
2023-05-22T21:35:52.002Z,99.90
2023-05-22T21:38:18.722Z,99.90
2023-05-22T21:40:45.730Z,99.90
2023-05-22T21:43:12.518Z,99.90
2023-05-22T21:45:39.408Z,99.90
2023-05-22T21:48:06.552Z,99.90
2023-05-22T21:50:33.298Z,99.90
2023-05-22T21:52:59.994Z,99.90
2023-05-22T21:55:27.208Z,99.90
2023-05-22T21:57:55.488Z,99.90
2023-05-22T22:00:22.736Z,99.90
2023-05-22T22:02:49.786Z,99.90
2023-05-22T22:05:18.598Z,99.90
2023-05-22T22:07:45.590Z,99.90
2023-05-22T22:10:12.457Z,99.90
2023-05-22T22:12:39.189Z,99.90
2023-05-22T22:15:06.529Z,99.90
2023-05-22T22:17:34.849Z,99.90
2023-05-22T22:20:01.844Z,99.90
2023-05-22T22:22:28.645Z,99.90
2023-05-22T22:24:55.438Z,99.90
2023-05-22T22:27:22.406Z,99.90
2023-05-22T22:29:49.245Z,99.90
2023-05-22T22:32:16.292Z,99.90
2023-05-22T22:34:45.292Z,99.90
2023-05-22T22:37:13.817Z,99.90
2023-05-22T22:39:41.094Z,99.90
2023-05-22T22:42:07.935Z,99.90
2023-05-22T22:44:34.667Z,99.90
2023-05-22T22:47:02.481Z,99.90
2023-05-22T22:49:29.251Z,99.90
2023-05-22T22:51:56.437Z,99.90
2023-05-22T22:54:23.909Z,99.90
2023-05-22T22:56:51.348Z,99.90
2023-05-22T22:59:18.179Z,99.90
2023-05-22T23:01:45.291Z,99.90
2023-05-22T23:04:13.037Z,99.90
2023-05-22T23:06:42.612Z,99.90
2023-05-22T23:09:11.059Z,99.90
2023-05-22T23:11:38.707Z,99.90
2023-05-22T23:14:07.777Z,99.90
2023-05-22T23:16:41.354Z,99.90
2023-05-22T23:19:10.441Z,99.90
2023-05-22T23:21:37.272Z,99.90
2023-05-22T23:24:05.139Z,99.90
2023-05-22T23:26:32.599Z,99.90
2023-05-22T23:29:00.154Z,99.90
2023-05-22T23:31:30.111Z,99.90
2023-05-22T23:33:57.444Z,99.90
2023-05-22T23:36:24.562Z,99.90
2023-05-22T23:38:51.469Z,99.90
2023-05-22T23:41:18.590Z,99.90
2023-05-22T23:43:48.222Z,99.90
2023-05-22T23:46:15.106Z,99.90
2023-05-22T23:48:42.400Z,99.90
2023-05-22T23:51:14.341Z,99.90
2023-05-22T23:53:42.293Z,99.90
2023-05-22T23:56:09.761Z,99.90
2023-05-22T23:58:39.623Z,99.90
